createdAt,value
2019-06-07T00:00:33.533Z,4.22
2019-06-07T00:02:44.920Z,4.08
2019-06-07T00:05:18.000Z,3.92
2019-06-07T00:07:43.725Z,4.97
2019-06-07T00:10:30.214Z,3.87
2019-06-07T00:12:42.419Z,4.22
2019-06-07T00:15:15.091Z,4.15
2019-06-07T00:17:41.003Z,3.72
2019-06-07T00:20:13.878Z,4.33
2019-06-07T00:22:40.352Z,4.28
2019-06-07T00:25:12.618Z,4.20
2019-06-07T00:27:39.269Z,4.95
2019-06-07T00:32:44.423Z,4.72
2019-06-07T00:35:15.442Z,4.45
2019-06-07T00:37:43.132Z,4.40
2019-06-07T00:40:17.726Z,3.90
2019-06-07T00:42:43.447Z,4.12
2019-06-07T00:45:14.040Z,3.15
2019-06-07T00:47:42.199Z,3.42
2019-06-07T00:50:13.410Z,3.60
2019-06-07T00:53:13.448Z,4.00
2019-06-07T00:55:14.320Z,3.72
2019-06-07T00:57:42.888Z,3.67
2019-06-07T01:00:12.604Z,3.62
2019-06-07T01:02:41.108Z,3.95
2019-06-07T01:05:10.079Z,3.90
2019-06-07T01:07:38.735Z,3.80
2019-06-07T01:10:10.651Z,3.33
2019-06-07T01:12:39.047Z,3.90
2019-06-07T01:15:08.321Z,4.30
2019-06-07T01:17:50.140Z,3.85
2019-06-07T01:20:11.139Z,3.65
2019-06-07T01:22:39.568Z,4.10
2019-06-07T01:25:08.813Z,3.77
2019-06-07T01:27:37.223Z,3.60
2019-06-07T01:30:09.036Z,3.58
2019-06-07T01:32:37.459Z,3.42
2019-06-07T01:35:09.145Z,3.90
2019-06-07T01:37:37.535Z,3.90
2019-06-07T01:40:06.890Z,4.08
2019-06-07T01:42:35.390Z,3.00
2019-06-07T01:45:05.720Z,3.05
2019-06-07T01:47:39.921Z,3.42
2019-06-07T01:50:10.378Z,3.62
2019-06-07T01:52:38.790Z,3.98
2019-06-07T01:55:08.644Z,3.80
2019-06-07T01:57:47.475Z,4.37
2019-06-07T02:00:08.041Z,4.65
2019-06-07T02:02:36.735Z,4.22
2019-06-07T02:05:06.554Z,3.85
2019-06-07T02:07:35.309Z,3.95
2019-06-07T02:10:07.862Z,4.15
2019-06-07T02:12:43.316Z,4.85
2019-06-07T02:15:08.427Z,5.10
2019-06-07T02:17:37.217Z,5.05
2019-06-07T02:20:07.077Z,6.35
2019-06-07T02:22:35.572Z,6.40
2019-06-07T02:25:34.955Z,6.90
2019-06-07T02:27:35.097Z,7.08
2019-06-07T02:30:35.102Z,10.48
2019-06-07T02:32:37.099Z,7.55
2019-06-07T02:35:07.042Z,7.35
2019-06-07T02:37:37.057Z,8.40
2019-06-07T02:40:09.330Z,9.00
2019-06-07T02:42:42.242Z,23.65
2019-06-07T02:45:10.818Z,24.57
2019-06-07T02:47:39.959Z,27.07
2019-06-07T02:50:11.080Z,27.37
2019-06-07T02:52:41.233Z,29.27
2019-06-07T02:55:11.473Z,28.60
2019-06-07T02:57:41.855Z,25.10
2019-06-07T03:00:41.305Z,23.32
2019-06-07T03:02:46.066Z,24.75
2019-06-07T03:05:14.824Z,24.82
2019-06-07T03:07:45.680Z,21.05
2019-06-07T03:10:14.511Z,22.40
2019-06-07T03:12:45.070Z,25.48
2019-06-07T03:15:32.236Z,22.48
2019-06-07T03:18:01.476Z,18.75
2019-06-07T03:20:34.577Z,15.05
2019-06-07T03:23:04.719Z,16.07
2019-06-07T03:25:37.751Z,16.45
2019-06-07T03:28:07.086Z,13.45
2019-06-07T03:30:46.954Z,14.35
2019-06-07T03:33:05.627Z,13.28
2019-06-07T03:35:35.318Z,15.60
2019-06-07T03:38:04.181Z,16.82
2019-06-07T03:40:36.770Z,17.62
2019-06-07T03:43:02.727Z,15.50
2019-06-07T03:45:33.060Z,15.18
2019-06-07T03:48:01.266Z,15.10
2019-06-07T03:50:33.528Z,16.90
2019-06-07T03:52:59.817Z,14.68
2019-06-07T03:55:30.217Z,20.35
2019-06-07T03:58:30.653Z,17.60
2019-06-07T04:00:31.219Z,16.30
2019-06-07T04:02:58.650Z,17.05
2019-06-07T04:05:28.747Z,20.65
2019-06-07T04:07:57.189Z,19.07
2019-06-07T04:10:44.694Z,18.73
2019-06-07T04:12:55.759Z,17.60
2019-06-07T04:15:24.171Z,19.20
2019-06-07T04:18:01.738Z,18.82
2019-06-07T04:20:22.721Z,21.85
2019-06-07T04:22:51.172Z,25.05
2019-06-07T04:25:19.573Z,25.45
2019-06-07T04:27:48.000Z,24.15
2019-06-07T04:30:22.234Z,26.07
2019-06-07T04:32:50.690Z,26.10
2019-06-07T04:35:19.162Z,22.60
2019-06-07T04:37:47.913Z,25.52
2019-06-07T04:40:16.345Z,23.85
2019-06-07T04:42:45.916Z,23.47
2019-06-07T04:45:33.108Z,22.93
2019-06-07T04:47:46.064Z,22.65
2019-06-07T04:50:30.966Z,24.10
2019-06-07T04:52:59.022Z,24.00
2019-06-07T04:55:27.497Z,22.00
2019-06-07T04:57:56.346Z,24.07
2019-06-07T05:00:51.859Z,23.30
2019-06-07T05:03:05.365Z,19.23
2019-06-07T05:05:35.206Z,20.10
2019-06-07T05:08:07.404Z,17.97
2019-06-07T05:10:37.799Z,17.43
2019-06-07T05:13:04.726Z,16.73
2019-06-07T05:15:34.587Z,17.00
2019-06-07T05:18:03.275Z,16.30
2019-06-07T05:20:33.732Z,17.13
2019-06-07T05:23:01.810Z,16.00
2019-06-07T05:25:31.841Z,17.03
2019-06-07T05:28:00.364Z,15.47
2019-06-07T05:31:02.021Z,15.77
2019-06-07T05:33:04.959Z,15.70
2019-06-07T05:35:35.447Z,14.97
2019-06-07T05:38:04.097Z,16.13
2019-06-07T05:40:36.727Z,15.33
2019-06-07T05:43:06.008Z,15.80
2019-06-07T05:45:42.307Z,15.20
2019-06-07T05:48:12.902Z,13.87
2019-06-07T05:50:49.983Z,14.97
2019-06-07T05:53:11.791Z,13.07
2019-06-07T05:55:44.152Z,14.10
2019-06-07T05:58:10.414Z,12.57
2019-06-07T06:00:40.812Z,10.70
2019-06-07T06:10:12.846Z,9.37
2019-06-07T06:12:46.141Z,9.07
2019-06-07T06:15:11.836Z,8.40
2019-06-07T06:17:42.745Z,8.07
2019-06-07T06:20:10.759Z,8.80
2019-06-07T06:22:43.521Z,8.47
2019-06-07T06:25:31.533Z,7.90
2019-06-07T06:28:09.571Z,8.60
2019-06-07T06:30:12.153Z,8.80
2019-06-07T06:32:48.883Z,7.90
2019-06-07T06:35:12.082Z,6.90
2019-06-07T06:37:48.931Z,7.53
2019-06-07T06:40:13.750Z,6.80
2019-06-07T06:42:42.853Z,6.53
2019-06-07T06:45:13.510Z,6.80
2019-06-07T06:47:43.331Z,6.63
2019-06-07T06:50:13.143Z,6.87
2019-06-07T06:52:44.038Z,5.23
2019-06-07T06:55:12.548Z,6.87
2019-06-07T06:57:41.788Z,6.10
2019-06-07T07:00:15.222Z,5.80
2019-06-07T07:03:32.683Z,6.60
2019-06-07T07:05:14.155Z,6.70
2019-06-07T07:07:45.183Z,6.70
2019-06-07T07:10:15.174Z,5.73
2019-06-07T07:12:45.354Z,6.20
2019-06-07T07:15:17.658Z,5.27
2019-06-07T07:17:53.742Z,4.53
2019-06-07T07:20:16.635Z,5.00
2019-06-07T07:22:47.903Z,5.53
2019-06-07T07:25:15.465Z,5.50
2019-06-07T07:27:44.608Z,4.97
2019-06-07T07:30:36.257Z,3.83
2019-06-07T07:32:45.558Z,4.30
2019-06-07T07:35:14.820Z,3.70
2019-06-07T07:37:45.616Z,4.00
2019-06-07T07:40:55.596Z,4.27
2019-06-07T07:42:45.231Z,3.00
2019-06-07T07:45:14.219Z,3.47
2019-06-07T07:48:01.839Z,4.20
2019-06-07T07:50:13.584Z,4.00
2019-06-07T07:52:42.147Z,4.30
2019-06-07T07:55:11.173Z,3.37
2019-06-07T07:57:39.817Z,2.80
2019-06-07T08:00:48.954Z,2.80
2019-06-07T08:02:39.876Z,3.30
2019-06-07T08:05:25.159Z,3.50
2019-06-07T08:07:38.877Z,3.40
2019-06-07T08:10:09.532Z,2.80
2019-06-07T08:13:00.206Z,3.40
2019-06-07T08:15:08.740Z,3.47
2019-06-07T08:17:37.196Z,3.10
2019-06-07T08:20:07.762Z,2.73
2019-06-07T08:22:37.589Z,2.50
2019-06-07T08:25:08.733Z,3.30
2019-06-07T08:27:37.496Z,3.10
2019-06-07T08:30:46.620Z,2.80
2019-06-07T08:32:39.252Z,3.23
2019-06-07T08:35:09.214Z,3.80
2019-06-07T08:40:08.737Z,3.60
2019-06-07T08:42:56.157Z,4.10
2019-06-07T08:45:09.531Z,4.17
2019-06-07T08:47:37.959Z,3.37
2019-06-07T08:50:09.306Z,3.50
2019-06-07T08:52:37.787Z,4.23
2019-06-07T08:55:06.714Z,3.63
2019-06-07T08:57:35.135Z,3.37
2019-06-07T09:00:40.899Z,4.03
2019-06-07T09:02:36.306Z,4.30
2019-06-07T09:05:12.429Z,4.30
2019-06-07T09:07:37.920Z,4.63
2019-06-07T09:10:13.872Z,3.70
2019-06-07T09:12:38.647Z,3.20
2019-06-07T09:15:20.834Z,3.10
2019-06-07T09:18:29.484Z,3.90
2019-06-07T09:20:34.938Z,4.53
2019-06-07T09:22:41.603Z,3.00
2019-06-07T09:25:20.064Z,2.80
2019-06-07T09:27:40.369Z,3.33
2019-06-07T09:30:16.583Z,3.20
2019-06-07T09:32:40.120Z,3.37
2019-06-07T09:35:16.465Z,2.90
2019-06-07T09:38:04.222Z,3.40
2019-06-07T09:40:25.046Z,3.53
2019-06-07T09:42:41.262Z,2.77
2019-06-07T09:45:13.934Z,2.80
2019-06-07T09:47:39.862Z,2.60
2019-06-07T09:50:11.820Z,2.50
2019-06-07T09:52:57.063Z,2.33
2019-06-07T09:55:24.474Z,2.50
2019-06-07T10:00:40.881Z,2.47
2019-06-07T10:03:16.132Z,2.30
2019-06-07T10:05:33.622Z,2.00
2019-06-07T10:08:22.553Z,1.60
2019-06-07T10:13:01.917Z,2.03
2019-06-07T10:15:30.304Z,2.10
2019-06-07T10:17:58.730Z,1.90
2019-06-07T10:20:27.142Z,1.63
2019-06-07T10:22:55.549Z,2.33
2019-06-07T10:25:24.192Z,2.53
2019-06-07T10:27:52.594Z,1.87
2019-06-07T10:30:21.593Z,1.83
2019-06-07T10:32:52.195Z,1.80
2019-06-07T10:35:20.146Z,2.03
2019-06-07T10:37:48.549Z,1.57
2019-06-07T10:40:17.950Z,2.17
2019-06-07T10:42:51.313Z,2.00
2019-06-07T10:45:19.964Z,1.90
2019-06-07T10:47:49.399Z,1.97
2019-06-07T10:50:18.321Z,1.63
2019-06-07T10:52:46.706Z,1.73
2019-06-07T10:55:15.111Z,1.83
2019-06-07T10:57:43.506Z,2.00
2019-06-07T11:00:13.574Z,1.60
2019-06-07T11:02:42.055Z,1.43
2019-06-07T11:05:12.296Z,1.63
2019-06-07T11:07:41.129Z,1.50
2019-06-07T11:10:15.526Z,1.60
2019-06-07T11:12:39.911Z,1.90
2019-06-07T11:15:08.976Z,2.70
2019-06-07T11:17:37.408Z,1.43
2019-06-07T11:20:10.165Z,1.47
2019-06-07T11:22:38.791Z,1.77
2019-06-07T11:25:09.047Z,1.87
2019-06-07T11:27:37.950Z,1.87
2019-06-07T11:30:08.354Z,1.57
2019-06-07T11:32:37.128Z,1.50
2019-06-07T11:35:08.605Z,1.90
2019-06-07T11:37:37.528Z,2.00
2019-06-07T11:40:23.996Z,1.70
2019-06-07T11:42:40.739Z,2.23
2019-06-07T11:45:10.503Z,1.93
2019-06-07T11:47:39.863Z,1.77
2019-06-07T11:50:11.626Z,2.33
2019-06-07T11:52:40.446Z,1.70
2019-06-07T11:55:11.318Z,2.10
2019-06-07T12:00:28.816Z,2.47
2019-06-07T12:02:59.033Z,1.80
2019-06-07T12:05:27.550Z,2.10
2019-06-07T12:08:01.470Z,1.60
2019-06-07T12:10:42.089Z,2.17
2019-06-07T12:13:04.095Z,2.20
2019-06-07T12:15:33.624Z,2.37
2019-06-07T12:18:02.329Z,2.43
2019-06-07T12:20:32.893Z,2.10
2019-06-07T12:23:01.430Z,2.80
2019-06-07T12:25:30.649Z,2.20
2019-06-07T12:28:05.785Z,2.00
2019-06-07T12:30:34.215Z,3.73
2019-06-07T12:33:03.455Z,2.70
2019-06-07T12:38:08.499Z,2.83
2019-06-07T12:40:37.994Z,1.83
2019-06-07T12:43:14.550Z,2.67
2019-06-07T12:48:31.207Z,2.77
2019-06-07T12:51:07.225Z,2.20
2019-06-07T12:53:38.279Z,2.50
2019-06-07T12:56:06.860Z,2.00
2019-06-07T12:58:39.561Z,2.50
2019-06-07T13:01:11.872Z,2.20
2019-06-07T13:03:45.137Z,2.70
2019-06-07T13:06:19.490Z,2.43
2019-06-07T13:08:57.949Z,2.37
2019-06-07T13:11:34.163Z,2.50
2019-06-07T13:14:09.569Z,2.60
2019-06-07T13:16:38.411Z,2.70
2019-06-07T13:19:29.421Z,2.60
2019-06-07T13:21:56.468Z,1.90
2019-06-07T13:24:28.811Z,2.53
2019-06-07T13:27:00.222Z,2.40
2019-06-07T13:29:38.272Z,2.13
2019-06-07T13:32:10.400Z,2.37
2019-06-07T13:34:41.935Z,2.27
2019-06-07T13:37:11.488Z,2.90
2019-06-07T13:39:41.837Z,2.87
2019-06-07T13:42:14.206Z,2.80
2019-06-07T13:44:45.265Z,2.03
2019-06-07T13:47:16.824Z,2.40
2019-06-07T13:49:54.914Z,2.70
2019-06-07T13:52:21.576Z,2.63
2019-06-07T13:54:53.469Z,2.33
2019-06-07T13:57:28.140Z,2.37
2019-06-07T13:59:57.139Z,2.20
2019-06-07T14:02:29.796Z,2.47
2019-06-07T14:05:00.261Z,2.03
2019-06-07T14:07:30.906Z,2.20
2019-06-07T14:10:03.990Z,2.10
2019-06-07T14:12:35.204Z,3.10
2019-06-07T14:15:07.737Z,2.10
2019-06-07T14:17:40.437Z,2.27
2019-06-07T14:20:13.543Z,2.30
2019-06-07T14:22:45.326Z,2.30
2019-06-07T14:27:50.507Z,2.83
2019-06-07T14:30:21.801Z,2.27
2019-06-07T14:33:01.899Z,2.40
2019-06-07T14:35:33.701Z,2.73
2019-06-07T14:38:05.425Z,2.60
2019-06-07T14:40:34.965Z,2.10
2019-06-07T14:43:08.534Z,3.20
2019-06-07T14:45:38.680Z,2.90
2019-06-07T14:48:12.187Z,2.50
2019-06-07T14:50:42.528Z,4.67
2019-06-07T14:53:17.369Z,3.63
2019-06-07T14:55:48.232Z,2.80
2019-06-07T14:58:19.021Z,2.77
2019-06-07T15:00:53.191Z,2.80
2019-06-07T15:03:21.646Z,2.67
2019-06-07T15:05:50.055Z,2.90
2019-06-07T15:08:18.474Z,2.40
2019-06-07T15:10:46.960Z,2.57
2019-06-07T15:13:15.363Z,2.77
2019-06-07T15:15:43.801Z,3.20
2019-06-07T15:18:12.299Z,2.63
2019-06-07T15:20:40.803Z,2.63
2019-06-07T15:23:09.283Z,2.33
2019-06-07T15:25:39.621Z,2.50
2019-06-07T15:28:08.523Z,2.60
2019-06-07T15:33:24.527Z,3.07
2019-06-07T15:35:53.035Z,2.63
2019-06-07T15:38:21.445Z,3.40
2019-06-07T15:40:49.861Z,2.77
2019-06-07T15:43:18.262Z,2.80
2019-06-07T15:45:46.924Z,2.60
2019-06-07T15:48:15.789Z,2.80
2019-06-07T15:50:44.272Z,2.70
2019-06-07T15:53:14.401Z,2.80
2019-06-07T15:55:45.690Z,2.80
2019-06-07T15:58:13.018Z,2.27
2019-06-07T16:00:42.593Z,3.60
2019-06-07T16:03:11.376Z,3.13
2019-06-07T16:05:40.500Z,5.23
2019-06-07T16:08:09.050Z,3.70
2019-06-07T16:10:38.739Z,5.10
2019-06-07T16:13:08.936Z,5.50
2019-06-07T16:15:37.471Z,5.37
2019-06-07T16:18:06.273Z,6.03
2019-06-07T16:20:35.207Z,7.37
2019-06-07T16:23:03.839Z,7.30
2019-06-07T16:25:32.237Z,7.30
2019-06-07T16:28:00.694Z,6.00
2019-06-07T16:30:29.324Z,6.10
2019-06-07T16:32:57.839Z,7.20
2019-06-07T16:35:26.305Z,6.13
2019-06-07T16:37:54.734Z,4.33
2019-06-07T16:40:23.399Z,5.90
2019-06-07T16:42:51.911Z,4.17
2019-06-07T16:45:21.357Z,3.37
2019-06-07T16:47:49.949Z,2.30
2019-06-07T16:50:18.656Z,1.93
2019-06-07T16:52:48.534Z,1.50
2019-06-07T16:55:17.309Z,1.50
2019-06-07T16:57:45.953Z,1.63
2019-06-07T17:00:15.078Z,1.70
2019-06-07T17:02:45.055Z,1.07
2019-06-07T17:05:14.038Z,1.40
2019-06-07T17:07:43.272Z,0.87
2019-06-07T17:10:13.146Z,1.27
2019-06-07T17:12:42.821Z,0.90
2019-06-07T17:15:13.617Z,0.60
2019-06-07T17:17:43.013Z,0.80
2019-06-07T17:20:11.747Z,0.57
2019-06-07T17:22:41.995Z,0.90
2019-06-07T17:25:11.362Z,0.80
2019-06-07T17:27:39.841Z,0.73
2019-06-07T17:30:13.362Z,0.63
2019-06-07T17:32:50.523Z,0.60
2019-06-07T17:35:12.400Z,0.70
2019-06-07T17:37:43.176Z,0.83
2019-06-07T17:40:11.338Z,0.70
2019-06-07T17:42:40.687Z,0.97
2019-06-07T17:45:11.270Z,0.90
2019-06-07T17:47:43.736Z,1.47
2019-06-07T17:50:14.382Z,0.53
2019-06-07T17:52:43.753Z,0.70
2019-06-07T17:55:12.960Z,0.50
2019-06-07T17:57:42.276Z,0.63
2019-06-07T18:00:29.304Z,1.07
2019-06-07T18:02:44.589Z,0.70
2019-06-07T18:05:13.385Z,0.57
2019-06-07T18:10:34.704Z,0.60
2019-06-07T18:13:03.182Z,0.50
2019-06-07T18:15:41.108Z,0.50
2019-06-07T18:18:09.920Z,0.60
2019-06-07T18:20:38.345Z,0.90
2019-06-07T18:23:07.043Z,0.50
2019-06-07T18:25:35.624Z,0.70
2019-06-07T18:28:04.465Z,0.50
2019-06-07T18:30:32.995Z,0.60
2019-06-07T18:33:01.396Z,1.07
2019-06-07T18:35:29.848Z,0.60
2019-06-07T18:38:00.656Z,0.60
2019-06-07T18:40:29.101Z,0.80
2019-06-07T18:43:00.195Z,1.13
2019-06-07T18:45:28.898Z,0.80
2019-06-07T18:47:57.809Z,0.43
2019-06-07T18:50:27.907Z,0.70
2019-06-07T18:52:56.343Z,1.00
2019-06-07T18:55:25.105Z,0.70
2019-06-07T18:57:54.425Z,0.63
2019-06-07T19:00:23.918Z,0.73
2019-06-07T19:02:53.866Z,0.90
2019-06-07T19:05:23.462Z,0.80
2019-06-07T19:07:52.537Z,0.90
2019-06-07T19:10:23.135Z,0.67
2019-06-07T19:12:52.986Z,0.90
2019-06-07T19:15:23.834Z,0.90
2019-06-07T19:17:52.253Z,0.63
2019-06-07T19:20:21.622Z,1.03
2019-06-07T19:22:50.231Z,0.63
2019-06-07T19:25:22.045Z,0.80
2019-06-07T19:27:50.684Z,0.83
2019-06-07T19:30:19.891Z,1.07
2019-06-07T19:32:49.769Z,0.70
2019-06-07T19:35:18.920Z,0.73
2019-06-07T19:37:47.339Z,0.70
2019-06-07T19:40:16.091Z,0.80
2019-06-07T19:42:44.552Z,0.70
2019-06-07T19:45:29.561Z,1.00
2019-06-07T19:47:44.875Z,0.73
2019-06-07T19:50:14.134Z,0.80
2019-06-07T19:52:42.551Z,0.53
2019-06-07T19:55:11.162Z,0.73
2019-06-07T19:57:39.606Z,0.60
2019-06-07T20:00:13.821Z,0.87
2019-06-07T20:02:39.558Z,0.80
2019-06-07T20:05:13.904Z,0.80
2019-06-07T20:07:42.571Z,0.70
2019-06-07T20:10:12.218Z,0.90
2019-06-07T20:12:40.654Z,0.70
2019-06-07T20:15:27.389Z,0.77
2019-06-07T20:17:57.004Z,0.80
2019-06-07T20:20:25.992Z,0.77
2019-06-07T20:22:54.385Z,0.70
2019-06-07T20:25:23.039Z,0.80
2019-06-07T20:27:51.445Z,0.70
2019-06-07T20:30:19.982Z,0.50
2019-06-07T20:32:48.632Z,0.70
2019-06-07T20:35:17.034Z,0.63
2019-06-07T20:37:45.432Z,0.80
2019-06-07T20:40:23.729Z,1.00
2019-06-07T20:42:44.450Z,0.70
2019-06-07T20:45:14.179Z,0.60
2019-06-07T20:47:42.614Z,0.87
2019-06-07T20:50:11.350Z,0.80
2019-06-07T20:52:39.790Z,0.70
2019-06-07T20:55:09.804Z,0.60
2019-06-07T20:57:38.366Z,0.80
2019-06-07T21:00:17.240Z,0.80
2019-06-07T21:02:39.926Z,1.33
2019-06-07T21:05:09.848Z,0.90
2019-06-07T21:07:39.017Z,0.73
2019-06-07T21:10:08.344Z,0.80
2019-06-07T21:12:37.047Z,0.80
2019-06-07T21:15:12.779Z,0.80
2019-06-07T21:17:40.313Z,0.80
2019-06-07T21:20:13.259Z,0.70
2019-06-07T21:22:39.226Z,0.73
2019-06-07T21:25:09.488Z,0.70
2019-06-07T21:27:38.442Z,0.90
2019-06-07T21:30:09.638Z,0.57
2019-06-07T21:32:38.606Z,0.60
2019-06-07T21:35:07.996Z,0.90
2019-06-07T21:37:36.733Z,0.50
2019-06-07T21:40:08.220Z,0.90
2019-06-07T21:42:36.980Z,0.80
2019-06-07T21:45:07.910Z,0.80
2019-06-07T21:47:36.847Z,0.80
2019-06-07T21:50:08.886Z,0.80
2019-06-07T21:52:37.604Z,0.70
2019-06-07T21:55:08.885Z,0.80
2019-06-07T21:57:37.918Z,0.80
2019-06-07T22:00:28.853Z,0.73
2019-06-07T22:02:57.270Z,0.50
2019-06-07T22:05:25.986Z,0.90
2019-06-07T22:07:54.404Z,0.87
2019-06-07T22:10:22.800Z,1.00
2019-06-07T22:12:51.211Z,0.90
2019-06-07T22:15:33.114Z,0.60
2019-06-07T22:17:50.122Z,0.70
2019-06-07T22:20:18.614Z,0.63
2019-06-07T22:22:47.046Z,1.70
2019-06-07T22:25:15.446Z,0.50
2019-06-07T22:27:44.083Z,0.90
2019-06-07T22:30:14.256Z,0.80
2019-06-07T22:32:42.917Z,0.80
2019-06-07T22:35:11.342Z,0.70
2019-06-07T22:37:40.014Z,0.70
2019-06-07T22:40:08.762Z,1.07
2019-06-07T22:42:37.642Z,0.70
2019-06-07T22:45:08.297Z,0.90
2019-06-07T22:47:37.309Z,1.33
2019-06-07T22:50:10.637Z,0.93
2019-06-07T22:52:39.414Z,0.80
2019-06-07T22:55:10.147Z,1.10
2019-06-07T22:57:59.311Z,0.90
2019-06-07T23:00:29.727Z,0.90
2019-06-07T23:02:58.122Z,1.60
2019-06-07T23:05:26.580Z,1.03
2019-06-07T23:07:55.062Z,1.10
2019-06-07T23:10:23.529Z,1.10
2019-06-07T23:12:51.958Z,1.07
2019-06-07T23:15:20.927Z,0.97
2019-06-07T23:17:49.560Z,1.03
2019-06-07T23:20:20.010Z,1.10
2019-06-07T23:22:48.585Z,1.53
2019-06-07T23:25:20.918Z,1.00
2019-06-07T23:27:47.407Z,0.70
2019-06-07T23:30:16.819Z,1.00
2019-06-07T23:32:45.261Z,0.90
2019-06-07T23:35:14.853Z,0.83
2019-06-07T23:37:43.351Z,1.00
2019-06-07T23:40:13.134Z,1.03
2019-06-07T23:42:41.689Z,0.83
2019-06-07T23:45:11.918Z,1.07
2019-06-07T23:47:40.215Z,0.93
2019-06-07T23:50:08.822Z,1.60
2019-06-07T23:52:37.245Z,1.10
2019-06-07T23:55:07.066Z,1.40
2019-06-07T23:57:35.542Z,0.83
